Green Island, Australia
Current Conditions -  °F | °C
As of 2:00 PM on Saturday 01 Nov 2014 (Local Time) from YBCS Reporting Station
Few Clouds Few Clouds  
Wind Chill: 84°   Ceiling: Unl
Heat Index: 87°   Visibility: 6mi
Dew Point: 68°   Wind: 14mph
Humidity: 58%   Direction: 50°NE
Pressure: 29.88"   Gusts: NA
Location:  16.77°S, 145.97°E
Report Text: YBCS 010400Z 05012KT 9999 FEW030 29/20 Q1012 NOSIG
Loading
Personal Weather Stations






























Interactive Weather Map
Tropical Storm Tracking
New forecast layout! Learn more

10-Day Weather Forecast

Advertisements
Track Severe Weather on mobile